Time;durP1;ratioP1;P1;durP2;ratioP2;P2;SDS_P1;SDS_P2;PMS_P1;PMS_P2;Temp;Humidity;BMP_temperature;BMP_pressure;BME280_temperature;BME280_humidity;BME280_pressure;Samples;Min_cycle;Max_cycle;Signal;HPM_P1;HPM_P2
2022/03/25 00:01:36;;;;;;;5.25;3.83;;;;;;;11.12;42.22;102259.25;5183024;28;20029;-77
2022/03/25 00:04:07;;;;;;;2.60;2.40;;;;;;;11.10;42.04;102266.28;5203461;28;20063;-78
2022/03/25 00:06:38;;;;;;;6.10;3.85;;;;;;;11.06;42.09;102265.44;5180536;28;20022;-78
2022/03/25 00:09:08;;;;;;;2.67;2.47;;;;;;;11.03;42.42;102268.91;5181553;28;20029;-78
2022/03/25 00:11:40;;;;;;;3.17;2.28;;;;;;;11.00;42.39;102266.31;5199992;28;20400;-78
2022/03/25 00:14:11;;;;;;;3.63;3.22;;;;;;;10.95;42.18;102267.22;5183191;28;20029;-78
2022/03/25 00:16:42;;;;;;;3.67;3.40;;;;;;;10.96;42.49;102264.56;5183217;28;20033;-77
2022/03/25 00:19:13;;;;;;;3.83;3.13;;;;;;;10.91;42.49;102266.34;5163462;28;20032;-78
2022/03/25 00:21:44;;;;;;;3.72;3.35;;;;;;;10.88;42.52;102265.50;5167036;28;20041;-77
2022/03/25 00:24:14;;;;;;;6.32;3.88;;;;;;;10.86;42.46;102262.88;5180646;28;20041;-78
2022/03/25 00:26:45;;;;;;;3.90;3.53;;;;;;;10.84;42.80;102275.13;5186198;28;20028;-78
2022/03/25 00:29:16;;;;;;;2.42;2.22;;;;;;;10.82;42.83;102271.63;5179581;28;20480;-78
2022/03/25 00:31:49;;;;;;;2.97;2.78;;;;;;;10.80;43.01;102270.75;5145937;28;20044;-78
2022/03/25 00:34:19;;;;;;;5.45;3.00;;;;;;;10.76;42.95;102271.66;5181115;28;20100;-76
2022/03/25 00:36:50;;;;;;;3.20;2.90;;;;;;;10.64;43.05;102270.81;5193717;28;20121;-77
2022/03/25 00:39:21;;;;;;;2.75;2.55;;;;;;;10.70;43.13;102257.66;5194887;28;20033;-77
2022/03/25 00:41:51;;;;;;;3.97;3.58;;;;;;;10.67;43.08;102265.56;5195404;28;20055;-76
2022/03/25 00:44:22;;;;;;;3.28;2.97;;;;;;;10.62;43.01;102262.06;5196093;28;20041;-76
2022/03/25 00:46:52;;;;;;;6.55;4.60;;;;;;;10.57;43.77;102262.97;5162789;28;20025;-77
2022/03/25 00:49:24;;;;;;;3.78;3.42;;;;;;;10.49;42.59;102265.59;5177713;28;20041;-76
2022/03/25 00:51:55;;;;;;;2.50;2.30;;;;;;;10.51;43.04;102258.59;5178533;28;20143;-78
2022/03/25 00:54:25;;;;;;;3.72;3.25;;;;;;;10.51;43.28;102259.47;5164104;28;20033;-78
2022/03/25 00:56:56;;;;;;;1.98;1.88;;;;;;;10.44;43.39;102259.50;5195448;28;20041;-77
2022/03/25 00:59:26;;;;;;;4.75;4.25;;;;;;;10.38;43.17;102256.00;5146407;28;20118;-78
2022/03/25 01:01:57;;;;;;;4.78;4.32;;;;;;;10.32;43.38;102263.84;5194323;28;20080;-78
2022/03/25 01:04:28;;;;;;;6.60;2.60;;;;;;;10.32;43.22;102253.34;5175956;28;20033;-77
2022/03/25 01:06:59;;;;;;;1.98;1.88;;;;;;;10.31;43.38;102261.22;5175540;28;20720;-78
2022/03/25 01:09:30;;;;;;;3.67;2.60;;;;;;;10.26;43.33;102250.75;5178481;28;20415;-78
2022/03/25 01:12:01;;;;;;;3.03;2.65;;;;;;;10.24;43.12;102257.72;5164548;28;20040;-77
2022/03/25 01:14:31;;;;;;;2.42;2.17;;;;;;;10.21;43.11;102256.00;5179183;28;20025;-78
2022/03/25 01:17:02;;;;;;;2.85;2.67;;;;;;;10.17;43.55;102250.75;5196308;28;20102;-78
2022/03/25 01:19:34;;;;;;;5.32;3.10;;;;;;;10.16;43.31;102254.25;5181569;28;20057;-78
2022/03/25 01:22:05;;;;;;;2.25;2.08;;;;;;;10.16;43.33;102260.38;5179012;28;20095;-77
2022/03/25 01:24:36;;;;;;;9.15;3.65;;;;;;;10.12;43.65;102258.63;5179555;28;20128;-78
2022/03/25 01:27:07;;;;;;;2.50;2.30;;;;;;;10.04;43.78;102266.47;5165088;28;20527;-78
2022/03/25 01:29:37;;;;;;;3.55;3.25;;;;;;;10.02;43.65;102254.25;5179353;28;20041;-78
2022/03/25 01:32:08;;;;;;;2.50;2.30;;;;;;;10.01;43.55;102261.25;5184923;28;20034;-78
2022/03/25 01:34:39;;;;;;;2.83;2.63;;;;;;;10.02;43.67;102257.75;5199264;28;20029;-78
2022/03/25 01:37:09;;;;;;;2.17;1.98;;;;;;;9.96;43.67;102255.09;5179416;28;20073;-78
2022/03/25 01:39:40;;;;;;;6.10;3.22;;;;;;;9.94;43.48;102254.25;5180308;28;20111;-78
2022/03/25 01:42:10;;;;;;;4.18;3.67;;;;;;;9.95;44.02;102244.63;5163807;28;20473;-77
2022/03/25 01:44:41;;;;;;;1.80;1.67;;;;;;;9.93;44.14;102244.63;5180068;28;20408;-78
2022/03/25 01:47:15;;;;;;;4.35;3.45;;;;;;;9.89;44.17;102242.88;5179795;28;20045;-77
2022/03/25 01:49:46;;;;;;;2.63;2.42;;;;;;;9.86;44.21;102242.91;5163122;28;20025;-77
2022/03/25 01:52:16;;;;;;;3.58;2.30;;;;;;;9.86;44.25;102248.13;5164277;28;20711;-77
2022/03/25 01:54:47;;;;;;;4.15;3.80;;;;;;;9.82;43.98;102238.50;5179163;28;20083;-78
2022/03/25 01:57:18;;;;;;;4.78;4.28;;;;;;;9.80;44.29;102246.38;5163788;28;20497;-78
2022/03/25 01:59:49;;;;;;;3.03;2.78;;;;;;;9.80;44.66;102250.72;5197360;28;20017;-77
2022/03/25 02:02:20;;;;;;;2.22;2.08;;;;;;;9.74;44.24;102243.75;5166391;28;20522;-77
2022/03/25 02:04:51;;;;;;;5.75;4.22;;;;;;;9.73;44.74;102250.72;5163014;28;20041;-78
2022/03/25 02:07:21;;;;;;;1.75;1.65;;;;;;;9.60;44.98;102241.97;5193840;28;20437;-78
2022/03/25 02:09:52;;;;;;;2.20;2.05;;;;;;;9.58;44.38;102242.84;5180584;28;20044;-78
2022/03/25 02:12:23;;;;;;;1.85;1.63;;;;;;;9.53;44.37;102242.84;5180014;28;20107;-77
2022/03/25 02:14:57;;;;;;;1.80;1.70;;;;;;;9.54;44.51;102243.75;5171548;28;20032;-78
2022/03/25 02:17:27;;;;;;;2.40;2.22;;;;;;;9.52;44.83;102250.72;5167912;28;20042;-78
2022/03/25 02:19:57;;;;;;;2.08;1.92;;;;;;;9.49;44.69;102245.47;5182118;28;20047;-78
2022/03/25 02:22:28;;;;;;;2.55;2.42;;;;;;;9.41;44.80;102243.69;5199950;28;20071;-78
2022/03/25 02:24:58;;;;;;;2.53;2.35;;;;;;;9.27;44.64;102241.03;5152226;28;20052;-78
2022/03/25 02:27:31;;;;;;;2.00;1.75;;;;;;;9.35;45.34;102243.69;5179037;28;20045;-78
2022/03/25 02:30:02;;;;;;;3.35;2.67;;;;;;;9.32;44.82;102243.69;5167324;28;20021;-78
2022/03/25 02:32:33;;;;;;;1.92;1.80;;;;;;;9.30;45.02;102245.41;5166095;28;20034;-79
2022/03/25 02:35:04;;;;;;;13.43;4.43;;;;;;;9.27;45.12;102246.28;5184073;28;20040;-77
2022/03/25 02:37:34;;;;;;;1.95;1.85;;;;;;;9.28;45.29;102242.78;5180227;28;20167;-77
2022/03/25 02:40:08;;;;;;;2.83;2.63;;;;;;;9.26;45.16;102246.28;5171272;28;20143;-77
2022/03/25 02:42:39;;;;;;;1.48;1.38;;;;;;;9.22;45.69;102248.03;5197039;28;20057;-77
2022/03/25 02:45:09;;;;;;;3.15;2.92;;;;;;;9.20;45.51;102254.13;5182195;28;20048;-77
2022/03/25 02:47:40;;;;;;;1.77;1.67;;;;;;;9.18;45.24;102251.47;5199829;28;20768;-78
2022/03/25 02:50:10;;;;;;;2.70;2.40;;;;;;;9.09;45.07;102251.47;5166158;28;20608;-77
2022/03/25 02:52:41;;;;;;;4.00;2.80;;;;;;;9.07;45.16;102251.47;5200684;28;20727;-77
2022/03/25 02:55:12;;;;;;;2.03;1.92;;;;;;;9.08;45.35;102261.06;5200702;28;20036;-77
2022/03/25 02:57:42;;;;;;;3.88;3.53;;;;;;;9.05;45.28;102255.81;5183439;28;20053;-77
2022/03/25 03:00:13;;;;;;;2.70;2.50;;;;;;;9.05;45.66;102255.81;5176193;28;20025;-77
2022/03/25 03:02:44;;;;;;;2.45;2.25;;;;;;;9.01;45.85;102254.06;5149715;28;20037;-77
2022/03/25 03:05:17;;;;;;;3.13;2.92;;;;;;;8.97;45.49;102258.41;5183853;28;20056;-77
2022/03/25 03:07:49;;;;;;;4.18;3.75;;;;;;;9.02;46.28;102261.03;5196085;28;20053;-77
2022/03/25 03:10:20;;;;;;;2.88;1.95;;;;;;;8.92;45.58;102259.25;5167415;28;20084;-77
2022/03/25 03:12:52;;;;;;;4.32;3.55;;;;;;;8.89;45.58;102259.22;5180120;28;20037;-78
2022/03/25 03:15:23;;;;;;;1.50;1.40;;;;;;;8.89;46.15;102264.47;5200731;28;20025;-77
2022/03/25 03:17:54;;;;;;;2.50;2.38;;;;;;;8.88;46.25;102267.97;5198004;28;20044;-77
2022/03/25 03:20:25;;;;;;;2.72;2.33;;;;;;;8.84;46.22;102264.47;5182778;28;20090;-78
2022/03/25 03:22:57;;;;;;;1.17;1.17;;;;;;;8.80;46.13;102267.91;5165751;28;20120;-78
2022/03/25 03:25:27;;;;;;;2.80;2.60;;;;;;;8.74;46.30;102271.38;5181787;28;20036;-79
2022/03/25 03:27:58;;;;;;;2.65;2.05;;;;;;;8.68;46.57;102266.13;5181609;28;20536;-77
2022/03/25 03:30:28;;;;;;;2.95;2.70;;;;;;;8.60;46.26;102263.44;5201058;28;20056;-77
2022/03/25 03:32:59;;;;;;;11.02;2.25;;;;;;;8.60;46.55;102270.44;5165267;28;20037;-77
2022/03/25 03:35:30;;;;;;;3.38;3.13;;;;;;;8.47;46.38;102265.09;5198891;28;20029;-77
2022/03/25 03:38:03;;;;;;;2.13;1.98;;;;;;;8.50;46.32;102270.38;5162167;28;20069;-77
2022/03/25 03:40:33;;;;;;;2.10;1.80;;;;;;;8.55;46.71;102272.16;5164940;28;20039;-77
2022/03/25 03:43:04;;;;;;;4.70;4.28;;;;;;;8.59;46.96;102273.91;5166913;28;20041;-78
2022/03/25 03:45:35;;;;;;;2.92;2.72;;;;;;;8.53;46.72;102277.34;5192372;28;20036;-77
2022/03/25 03:48:05;;;;;;;2.85;2.63;;;;;;;8.50;46.85;102272.97;5172309;28;20048;-77
2022/03/25 03:50:36;;;;;;;2.92;1.83;;;;;;;8.46;46.86;102271.19;5183006;28;20041;-77
2022/03/25 03:53:07;;;;;;;3.15;2.95;;;;;;;8.45;46.67;102272.06;5179627;28;20511;-77
2022/03/25 03:55:38;;;;;;;2.80;2.60;;;;;;;8.40;46.83;102270.28;5167151;28;20029;-77
2022/03/25 03:58:09;;;;;;;2.80;2.55;;;;;;;8.37;46.90;102271.13;5193897;28;20038;-77
2022/03/25 04:00:40;;;;;;;6.80;3.38;;;;;;;8.39;46.90;102268.50;5178538;28;20034;-77
2022/03/25 04:03:10;;;;;;;4.97;3.50;;;;;;;8.32;47.19;102270.19;5179234;28;20037;-78
2022/03/25 04:05:42;;;;;;;1.77;1.67;;;;;;;8.35;47.22;102278.09;5198704;28;20395;-77
2022/03/25 04:08:12;;;;;;;3.13;2.92;;;;;;;8.33;47.58;102271.97;5179995;28;20199;-77
2022/03/25 04:10:42;;;;;;;1.80;1.70;;;;;;;8.29;47.56;102273.69;5181169;28;21470;-77
2022/03/25 04:13:13;;;;;;;5.07;2.40;;;;;;;8.29;47.49;102283.28;5182327;28;20033;-78
2022/03/25 04:15:43;;;;;;;3.38;3.08;;;;;;;8.26;47.39;102272.78;5167565;28;20049;-77
2022/03/25 04:18:14;;;;;;;3.30;2.17;;;;;;;8.22;47.29;102277.13;5164952;28;20719;-78
2022/03/25 04:20:44;;;;;;;3.50;3.03;;;;;;;8.21;47.10;102280.59;5178317;28;20044;-77
2022/03/25 04:23:15;;;;;;;3.65;2.85;;;;;;;8.06;47.35;102278.72;5179279;28;20561;-78
2022/03/25 04:25:45;;;;;;;1.73;1.65;;;;;;;8.01;47.89;102278.72;5163506;28;20510;-78
2022/03/25 04:28:17;;;;;;;4.47;4.00;;;;;;;7.99;47.81;102274.31;5163122;28;20162;-78
2022/03/25 04:30:48;;;;;;;2.80;2.60;;;;;;;7.96;47.61;102284.75;5181094;28;20032;-77
2022/03/25 04:33:18;;;;;;;2.80;1.80;;;;;;;8.03;48.32;102284.78;5198003;28;20042;-78
2022/03/25 04:35:49;;;;;;;1.13;1.13;;;;;;;8.00;47.67;102286.50;5196920;28;20033;-78
2022/03/25 04:38:19;;;;;;;3.53;3.33;;;;;;;8.00;47.66;102281.28;5182532;28;20041;-77
2022/03/25 04:40:50;;;;;;;6.80;4.72;;;;;;;7.95;48.08;102289.09;5185820;28;20484;-78
2022/03/25 04:43:20;;;;;;;1.20;1.20;;;;;;;7.96;48.19;102285.63;5181226;28;20094;-78
2022/03/25 04:45:51;;;;;;;1.65;1.55;;;;;;;7.94;47.80;102287.31;5180587;28;20160;-78
2022/03/25 04:48:21;;;;;;;3.15;2.95;;;;;;;7.85;48.11;102284.66;5180997;28;20397;-78
2022/03/25 04:50:52;;;;;;;2.45;2.35;;;;;;;7.86;48.54;102292.50;5201717;28;20041;-78
2022/03/25 04:53:22;;;;;;;6.93;2.97;;;;;;;7.84;48.14;102291.59;5164758;28;20440;-78
2022/03/25 04:55:53;;;;;;;6.25;2.60;;;;;;;7.83;48.69;102287.22;5189510;28;20052;-78
2022/03/25 04:58:23;;;;;;;1.35;1.35;;;;;;;7.72;48.23;102287.13;5196479;28;20160;-78
2022/03/25 05:00:55;;;;;;;2.78;2.58;;;;;;;7.76;48.67;102287.19;5180999;28;20022;-78
2022/03/25 05:03:25;;;;;;;2.20;1.77;;;;;;;7.78;49.11;102291.56;5181238;28;20040;-77
2022/03/25 05:05:56;;;;;;;3.35;3.15;;;;;;;7.74;48.38;102287.13;5195913;28;20747;-78
2022/03/25 05:08:26;;;;;;;1.95;1.85;;;;;;;7.73;49.12;102290.59;5175905;28;20045;-78
2022/03/25 05:10:57;;;;;;;3.45;3.13;;;;;;;7.51;48.57;102293.00;5187981;28;20487;-78
2022/03/25 05:13:27;;;;;;;4.88;4.47;;;;;;;7.60;48.73;102291.34;5181453;28;20068;-78
2022/03/25 05:15:58;;;;;;;3.22;3.00;;;;;;;7.56;49.04;102291.31;5196212;28;20098;-78
2022/03/25 05:18:28;;;;;;;4.45;4.05;;;;;;;7.55;48.92;102301.75;5179729;28;20474;-78
2022/03/25 05:21:01;;;;;;;3.33;3.03;;;;;;;7.43;48.91;102297.28;5177370;28;20630;-78
2022/03/25 05:23:31;;;;;;;2.05;1.95;;;;;;;7.38;48.80;102297.22;5195503;28;20046;-77
2022/03/25 05:26:03;;;;;;;5.22;4.00;;;;;;;7.51;49.28;102297.38;5196498;28;20146;-78
2022/03/25 05:28:34;;;;;;;5.05;3.88;;;;;;;7.38;48.95;102296.34;5195973;28;20042;-78
2022/03/25 05:31:05;;;;;;;1.75;1.65;;;;;;;7.45;49.49;102295.56;5197836;28;20021;-78
2022/03/25 05:33:36;;;;;;;4.90;2.78;;;;;;;7.49;49.70;102302.56;5179654;28;20381;-79
2022/03/25 05:36:07;;;;;;;1.67;1.27;;;;;;;7.46;49.53;102299.03;5180309;28;20048;-77
2022/03/25 05:38:37;;;;;;;17.10;3.97;;;;;;;7.15;49.51;102296.94;5191995;28;20701;-76
2022/03/25 05:41:08;;;;;;;3.90;3.60;;;;;;;7.30;49.88;102298.00;5200962;28;20036;-78
2022/03/25 05:43:38;;;;;;;3.85;3.53;;;;;;;7.30;49.95;102295.38;5165824;28;20037;-77
2022/03/25 05:46:09;;;;;;;1.75;1.65;;;;;;;7.30;49.30;102303.22;5162416;28;20028;-77
2022/03/25 05:48:39;;;;;;;3.58;3.28;;;;;;;7.25;49.80;102311.84;5183269;28;20124;-77
2022/03/25 05:51:10;;;;;;;3.63;3.33;;;;;;;7.34;49.95;102316.34;5160143;28;20064;-77
2022/03/25 05:53:41;;;;;;;2.53;2.33;;;;;;;7.30;50.36;102305.84;5184994;28;20683;-77
2022/03/25 05:56:13;;;;;;;4.10;3.80;;;;;;;7.27;49.55;102311.00;5152239;28;20037;-78
2022/03/25 05:58:43;;;;;;;7.85;4.80;;;;;;;7.30;50.73;102311.06;5203028;28;20033;-77
2022/03/25 06:01:13;;;;;;;4.40;3.63;;;;;;;7.25;50.29;102309.25;5197306;28;20036;-77
2022/03/25 06:03:44;;;;;;;4.18;3.88;;;;;;;7.28;50.49;102328.44;5166592;28;20033;-77
2022/03/25 06:06:15;;;;;;;5.47;4.93;;;;;;;7.21;50.22;102315.31;5184253;28;20026;-77
2022/03/25 06:08:45;;;;;;;4.25;2.83;;;;;;;7.25;50.67;102319.69;5174923;28;20120;-77
2022/03/25 06:11:16;;;;;;;2.90;2.70;;;;;;;7.25;49.91;102316.22;5202040;28;20042;-78
2022/03/25 06:13:47;;;;;;;5.97;4.35;;;;;;;7.28;50.89;102325.81;5184726;28;20056;-79
2022/03/25 06:16:17;;;;;;;3.85;3.55;;;;;;;7.22;50.78;102324.91;5180920;28;20022;-78
2022/03/25 06:18:48;;;;;;;3.42;3.20;;;;;;;7.28;50.51;102326.69;5197032;28;20067;-78
2022/03/25 06:21:20;;;;;;;4.85;3.72;;;;;;;7.29;50.79;102328.44;5180543;28;20021;-78
2022/03/25 06:23:50;;;;;;;1.98;1.90;;;;;;;7.28;51.09;102325.81;5182502;28;20064;-78
2022/03/25 06:26:21;;;;;;;2.97;2.53;;;;;;;7.12;51.89;102324.72;5180642;28;20080;-78
2022/03/25 06:28:52;;;;;;;5.40;3.58;;;;;;;7.18;51.24;102330.91;5197741;28;20498;-79
2022/03/25 06:31:23;;;;;;;1.40;1.40;;;;;;;7.28;51.59;102331.03;5181933;28;20073;-79
2022/03/25 06:33:53;;;;;;;5.10;2.53;;;;;;;7.30;51.43;102326.72;5189276;28;20404;-79
2022/03/25 06:36:24;;;;;;;3.50;3.30;;;;;;;7.30;51.35;102329.34;5165390;28;20038;-79
2022/03/25 06:38:54;;;;;;;2.92;2.80;;;;;;;7.16;52.69;102327.41;5181475;28;20048;-79
2022/03/25 06:41:25;;;;;;;3.03;2.83;;;;;;;7.25;51.79;102337.97;5167966;28;20033;-78
2022/03/25 06:43:56;;;;;;;3.50;3.15;;;;;;;7.31;51.86;102331.94;5182273;28;20151;-78
2022/03/25 06:46:26;;;;;;;2.42;2.13;;;;;;;7.33;51.27;102339.78;5180849;28;20037;-79
2022/03/25 06:48:57;;;;;;;11.73;5.65;;;;;;;7.29;51.29;102345.84;5167683;28;20040;-79
2022/03/25 06:51:31;;;;;;;8.52;5.13;;;;;;;7.37;51.57;102346.81;5181056;28;20049;-79
2022/03/25 06:54:05;;;;;;;4.60;4.18;;;;;;;7.29;51.82;102340.63;5184108;28;20044;-78
2022/03/25 06:56:36;;;;;;;3.53;3.25;;;;;;;7.27;51.75;102344.94;5165668;28;20022;-78
2022/03/25 06:59:07;;;;;;;1.80;1.70;;;;;;;7.39;52.06;102345.97;5169950;28;20837;-79
2022/03/25 07:01:38;;;;;;;2.95;2.67;;;;;;;7.29;52.89;102351.06;5178220;28;20053;-78
2022/03/25 07:04:09;;;;;;;7.90;3.60;;;;;;;7.37;51.16;102352.06;5164777;28;20037;-78
2022/03/25 07:06:47;;;;;;;2.35;2.25;;;;;;;7.41;51.31;102348.59;5181858;28;20208;-78
2022/03/25 07:09:18;;;;;;;3.85;3.63;;;;;;;7.38;52.30;102359.03;5156136;28;20037;-78
2022/03/25 07:11:48;;;;;;;7.00;4.45;;;;;;;7.41;52.95;102348.59;5178833;28;20029;-78
2022/03/25 07:14:19;;;;;;;6.07;5.22;;;;;;;7.36;52.76;102355.50;5165900;28;20071;-78
2022/03/25 07:16:49;;;;;;;12.52;7.03;;;;;;;7.43;51.75;102356.47;5180171;28;20034;-78
2022/03/25 07:19:20;;;;;;;4.32;3.33;;;;;;;7.49;51.92;102357.41;5181312;28;20021;-78
2022/03/25 07:21:51;;;;;;;2.47;2.33;;;;;;;7.52;51.37;102360.06;5180922;28;20448;-78
2022/03/25 07:24:23;;;;;;;4.22;3.80;;;;;;;7.53;52.19;102351.38;5165044;28;20033;-78
2022/03/25 07:26:53;;;;;;;3.95;3.65;;;;;;;7.70;53.13;102363.75;5179768;28;20052;-78
2022/03/25 07:29:23;;;;;;;2.60;2.47;;;;;;;7.76;54.39;102360.34;5181701;28;20068;-79
2022/03/25 07:31:54;;;;;;;3.65;3.35;;;;;;;7.72;53.31;102362.03;5164070;28;20025;-79
2022/03/25 07:34:24;;;;;;;9.00;4.75;;;;;;;7.73;53.85;102374.22;5149446;28;20022;-78
2022/03/25 07:36:55;;;;;;;4.00;3.65;;;;;;;7.82;53.40;102370.84;5175312;28;20679;-78
2022/03/25 07:39:25;;;;;;;3.15;2.95;;;;;;;7.84;53.41;102367.38;5170639;28;20033;-79
2022/03/25 07:41:56;;;;;;;3.25;2.95;;;;;;;7.95;53.91;102367.50;5185723;28;20045;-79
2022/03/25 07:44:27;;;;;;;20.13;6.25;;;;;;;7.95;54.15;102369.25;5172711;28;20030;-78
2022/03/25 07:46:58;;;;;;;5.85;5.35;;;;;;;8.14;53.72;102371.16;5169803;28;20032;-80
2022/03/25 07:49:28;;;;;;;3.30;3.08;;;;;;;8.20;54.88;102378.19;5165247;28;20105;-79
2022/03/25 07:51:59;;;;;;;4.43;3.38;;;;;;;8.11;53.71;102381.63;5196628;28;20041;-79
2022/03/25 07:54:29;;;;;;;7.15;5.47;;;;;;;8.16;54.03;102377.28;5179127;28;20390;-79
2022/03/25 07:57:00;;;;;;;3.95;3.58;;;;;;;8.26;55.47;102385.22;5165498;28;20040;-79
2022/03/25 07:59:30;;;;;;;3.03;2.83;;;;;;;8.31;57.67;102381.78;5164867;28;20108;-79
2022/03/25 08:02:01;;;;;;;2.60;2.30;;;;;;;8.42;54.49;102381.88;5166036;28;20037;-78
2022/03/25 08:04:32;;;;;;;3.40;3.13;;;;;;;8.35;55.75;102387.94;5165711;28;20036;-79
2022/03/25 08:07:07;;;;;;;4.78;4.32;;;;;;;8.42;55.17;102388.88;5174676;28;20444;-79
2022/03/25 08:09:37;;;;;;;5.22;4.78;;;;;;;8.35;55.87;102387.94;5181893;28;20041;-80
2022/03/25 08:12:08;;;;;;;7.38;4.20;;;;;;;8.51;54.29;102389.00;5199327;28;20033;-80
2022/03/25 08:14:39;;;;;;;3.03;2.83;;;;;;;8.49;56.22;102391.56;5184455;28;20241;-79
2022/03/25 08:17:10;;;;;;;3.45;3.13;;;;;;;8.41;55.53;102393.22;5182069;28;20052;-76
2022/03/25 08:19:41;;;;;;;4.65;4.25;;;;;;;8.62;54.72;102392.53;5165500;28;20064;-78
2022/03/25 08:22:11;;;;;;;2.50;2.30;;;;;;;8.52;55.39;102401.16;5178885;28;20547;-78
2022/03/25 08:27:51;;;;;;;5.68;5.13;;;;;;;8.64;55.33;102400.41;5158222;28;20048;-77
2022/03/25 08:30:23;;;;;;;4.10;3.75;;;;;;;8.68;56.36;102411.78;5182323;28;20063;-77
2022/03/25 08:32:54;;;;;;;6.40;3.67;;;;;;;8.71;57.71;102406.56;5182283;28;20029;-77
2022/03/25 08:35:25;;;;;;;4.88;4.40;;;;;;;8.75;57.27;102411.84;5165003;28;20041;-77
2022/03/25 08:37:57;;;;;;;7.80;6.03;;;;;;;8.87;54.87;102413.66;5183465;28;20045;-78
2022/03/25 08:40:29;;;;;;;6.00;5.22;;;;;;;8.92;56.80;102416.31;5195818;28;20033;-78
2022/03/25 08:43:01;;;;;;;4.60;4.10;;;;;;;8.97;54.74;102409.34;5181774;28;20514;-78
2022/03/25 08:45:32;;;;;;;4.78;4.28;;;;;;;9.05;54.95;102407.66;5152669;28;20087;-77
2022/03/25 08:48:03;;;;;;;4.68;4.28;;;;;;;9.09;56.02;102404.22;5166488;28;20636;-78
2022/03/25 08:50:34;;;;;;;9.63;7.05;;;;;;;9.18;56.14;102407.75;5167294;28;20025;-77
2022/03/25 08:53:05;;;;;;;4.85;3.53;;;;;;;9.19;54.98;102409.50;5147450;28;20064;-77
2022/03/25 08:55:36;;;;;;;3.50;3.08;;;;;;;9.21;56.78;102415.66;5198101;28;20037;-78
2022/03/25 08:58:07;;;;;;;3.55;3.25;;;;;;;9.27;57.33;102407.81;5180854;28;20626;-77
2022/03/25 09:00:38;;;;;;;4.85;4.40;;;;;;;9.29;56.92;102411.31;5168341;28;20584;-77
2022/03/25 09:03:09;;;;;;;8.35;4.90;;;;;;;9.45;56.64;102418.41;5180970;28;20033;-77
2022/03/25 09:05:40;;;;;;;5.13;4.63;;;;;;;9.55;57.47;102415.78;5165327;28;20290;-78
2022/03/25 09:08:13;;;;;;;4.30;3.97;;;;;;;9.45;56.24;102418.41;5153123;28;20068;-79
2022/03/25 09:10:44;;;;;;;4.38;2.80;;;;;;;9.55;57.85;102414.06;5185702;28;20057;-79
2022/03/25 09:13:14;;;;;;;4.18;3.78;;;;;;;9.65;57.77;102409.72;5168657;28;20042;-79
2022/03/25 09:15:46;;;;;;;21.92;9.50;;;;;;;9.69;56.89;102405.38;5167626;28;20423;-80
2022/03/25 09:18:17;;;;;;;4.00;3.40;;;;;;;9.80;56.32;102410.63;5168058;28;20045;-80
2022/03/25 09:20:48;;;;;;;4.68;4.15;;;;;;;9.85;55.90;102411.56;5166437;28;20070;-80
2022/03/25 09:23:19;;;;;;;3.63;3.40;;;;;;;9.97;57.11;102408.94;5152465;28;20053;-80
2022/03/25 09:25:52;;;;;;;6.43;5.80;;;;;;;10.01;56.00;102412.44;5178872;28;20025;-80
2022/03/25 09:28:22;;;;;;;11.05;6.30;;;;;;;10.02;56.02;102415.09;5151964;28;20428;-79
2022/03/25 09:30:55;;;;;;;5.03;3.72;;;;;;;10.32;56.03;102415.16;5189861;28;20033;-80
2022/03/25 09:33:28;;;;;;;3.78;3.47;;;;;;;10.29;54.91;102415.13;5177512;28;20072;-80
2022/03/25 09:36:02;;;;;;;5.57;5.10;;;;;;;10.53;56.29;102423.06;5177623;28;20091;-80
2022/03/25 09:38:32;;;;;;;;;;;;;;;10.48;55.00;102421.31;5182169;28;20676;-79
2022/03/25 09:41:06;;;;;;;6.22;5.53;;;;;;;10.53;56.02;102422.19;5156398;28;19995;-79
2022/03/25 09:43:37;;;;;;;6.60;4.28;;;;;;;10.64;55.30;102419.56;5186456;28;20037;-78
2022/03/25 09:46:08;;;;;;;4.85;4.45;;;;;;;10.67;54.84;102420.44;5191070;28;20030;-79
2022/03/25 09:48:38;;;;;;;6.32;4.57;;;;;;;10.77;54.18;102416.06;5188377;28;20037;-78
2022/03/25 09:51:09;;;;;;;3.00;2.80;;;;;;;10.76;54.72;102411.69;5175712;28;20025;-80
2022/03/25 09:53:41;;;;;;;7.03;5.13;;;;;;;10.76;54.39;102414.31;5188980;28;20068;-80
2022/03/25 09:56:11;;;;;;;5.20;4.75;;;;;;;10.98;53.37;102411.66;5201888;28;20034;-78
2022/03/25 09:58:42;;;;;;;5.75;4.53;;;;;;;11.06;53.52;102411.63;5165984;28;20080;-78
2022/03/25 10:01:13;;;;;;;4.75;4.35;;;;;;;11.07;53.53;102410.75;5182633;28;20036;-78
2022/03/25 10:03:43;;;;;;;6.15;4.22;;;;;;;11.28;51.87;102408.06;5149700;28;20155;-79
2022/03/25 10:06:15;;;;;;;8.27;3.20;;;;;;;11.25;52.78;102412.47;5185837;28;20546;-77
2022/03/25 10:08:55;;;;;;;4.85;4.45;;;;;;;11.26;53.42;102409.84;5179111;28;20658;-78
2022/03/25 10:11:31;;;;;;;6.53;5.15;;;;;;;11.40;53.34;102409.81;5183586;28;20558;-78
2022/03/25 10:14:14;;;;;;;7.05;5.25;;;;;;;11.42;52.73;102409.78;5181197;28;20120;-79
2022/03/25 10:16:46;;;;;;;2.87;2.67;;;;;;;11.54;52.68;102409.72;5169902;28;20408;-78
2022/03/25 10:19:19;;;;;;;5.43;4.73;;;;;;;11.76;52.82;102414.91;5185521;28;20367;-78
2022/03/25 10:21:58;;;;;;;2.80;2.63;;;;;;;11.73;52.95;102407.03;5188184;28;20124;-78
2022/03/25 10:24:54;;;;;;;14.70;6.40;;;;;;;12.07;51.95;102405.09;5202284;28;20029;-78
2022/03/25 10:27:28;;;;;;;7.28;4.45;;;;;;;11.98;51.89;102407.81;5194784;28;20042;-78
2022/03/25 10:30:00;;;;;;;3.42;3.13;;;;;;;12.39;50.83;102400.50;5184060;28;20032;-77
2022/03/25 10:32:38;;;;;;;3.93;3.60;;;;;;;12.38;50.43;102402.28;5184900;28;20148;-79
2022/03/25 10:35:10;;;;;;;16.95;4.47;;;;;;;12.48;49.60;102410.97;5183769;28;20028;-76
2022/03/25 10:38:01;;;;;;;3.17;2.97;;;;;;;12.56;48.40;102403.88;5180992;28;20041;-78
2022/03/25 10:40:32;;;;;;;7.20;4.88;;;;;;;12.69;48.23;102393.22;5181575;28;20287;-80
2022/03/25 10:43:12;;;;;;;3.60;3.22;;;;;;;12.52;49.96;102388.97;5153341;28;20029;-80
2022/03/25 10:45:42;;;;;;;7.45;4.85;;;;;;;12.80;47.79;102388.75;5200139;28;20036;-82
2022/03/25 10:48:22;;;;;;;3.67;2.83;;;;;;;12.92;46.85;102395.66;5175514;28;20038;-78
2022/03/25 10:51:08;;;;;;;4.25;3.90;;;;;;;13.19;46.19;102389.19;5186530;28;20033;-81
2022/03/25 10:53:47;;;;;;;6.82;4.80;;;;;;;12.93;46.93;102386.00;5165540;28;20132;-77
2022/03/25 10:56:23;;;;;;;3.67;3.38;;;;;;;13.08;45.54;102383.19;5151239;28;20121;-80
2022/03/25 10:58:57;;;;;;;3.38;3.05;;;;;;;13.14;46.16;102380.50;5173426;28;20068;-81
2022/03/25 11:01:27;;;;;;;13.60;3.72;;;;;;;13.04;46.83;102387.63;5186431;28;20022;-78
2022/03/25 11:03:58;;;;;;;5.82;3.22;;;;;;;13.11;45.95;102385.78;5200839;28;20045;-78
2022/03/25 11:06:32;;;;;;;4.82;3.83;;;;;;;13.25;45.17;102387.41;5193459;28;20030;-78
2022/03/25 11:09:02;;;;;;;;;;;;;;;13.38;46.11;102383.72;5155908;28;20156;-79
2022/03/25 11:11:34;;;;;;;3.20;2.97;;;;;;;13.65;44.93;102381.66;5177031;28;19917;-78
2022/03/25 11:14:05;;;;;;;2.80;2.58;;;;;;;13.58;43.75;102380.00;5212091;28;20052;-79
2022/03/25 11:16:46;;;;;;;2.47;2.28;;;;;;;13.72;43.06;102382.47;5178030;28;20037;-77
2022/03/25 11:19:17;;;;;;;0.82;0.82;;;;;;;13.80;42.67;102376.16;5178849;28;20037;-78
2022/03/25 11:21:49;;;;;;;3.17;1.65;;;;;;;13.94;41.80;102372.44;5152991;28;20052;-77
2022/03/25 11:24:33;;;;;;;0.73;0.73;;;;;;;14.05;40.45;102374.94;5168164;28;20743;-77
2022/03/25 11:27:19;;;;;;;1.90;1.80;;;;;;;14.00;40.17;102373.25;5200738;28;20021;-78
2022/03/25 11:29:53;;;;;;;2.00;1.90;;;;;;;14.07;39.33;102374.03;5187509;28;20076;-77
2022/03/25 11:32:24;;;;;;;1.13;1.13;;;;;;;14.11;40.48;102365.16;5183088;28;20852;-78
2022/03/25 11:34:54;;;;;;;1.65;1.55;;;;;;;14.35;39.32;102362.16;5204443;28;20030;-77
2022/03/25 11:37:28;;;;;;;2.60;1.15;;;;;;;14.43;39.28;102370.81;5197821;28;20081;-77
2022/03/25 11:40:25;;;;;;;2.97;1.75;;;;;;;14.37;39.38;102360.38;5183532;28;20040;-80
2022/03/25 11:42:58;;;;;;;1.20;1.08;;;;;;;14.29;40.34;102358.72;5185242;28;20159;-78
2022/03/25 11:45:34;;;;;;;1.48;1.38;;;;;;;14.59;39.58;102355.56;5168639;28;20103;-80
2022/03/25 11:48:05;;;;;;;2.55;2.10;;;;;;;14.67;38.97;102358.97;5153920;28;20037;-79
2022/03/25 11:50:38;;;;;;;1.02;1.02;;;;;;;14.64;39.35;102354.56;5155289;28;20067;-78
2022/03/25 11:53:12;;;;;;;1.10;1.10;;;;;;;14.94;38.51;102346.13;5183818;28;20044;-78
2022/03/25 11:56:02;;;;;;;2.80;1.70;;;;;;;14.89;38.41;102342.72;5156840;28;20132;-81